Latest Weather Observations for Scoresby

IDV60801

Issued at 6:32 pm EDT Tuesday 17 October 2017 (issued every 30 minutes, with the page automatically refreshed every 10 minutes)

About weather observations | Map of weather stations | Latest weather observations for VIC | Other Formats
Station Details ID: 086104 Name: SCORESBY RESEARCH INSTITUTE Lat: -37.87 Lon: 145.26 Height: 80.0 m
Data from the previous 72 hours. | See also: Recent months at Scoresby
Date/Time
EDT
Temp
°C
App
Temp
°C
Dew
Point
°C
Rel
Hum
%
Delta-T
°C
Wind Press
QNH
hPa
Press
MSL
hPa
Rain since
9am
mm
Dir  Spd
km/h
Gust
km/h
Spd
kts
Gust
kts
17/06:30pm 27.9 26.2 7.7 28 10.9 N 6 11 3 6 - - 0.0
17/06:00pm 28.3 26.3 7.0 26 11.4 NNE 7 11 4 6 - - 0.0
17/05:30pm 28.5 25.6 6.6 25 11.6 NE 11 17 6 9 - - 0.0
17/05:00pm 28.6 26.8 7.2 26 11.5 NE 6 13 3 7 - - 0.0
17/04:30pm 28.7 27.3 9.4 30 10.8 NE 7 15 4 8 - - 0.0
17/04:00pm 29.0 27.7 9.2 29 11.0 NE 6 15 3 8 - - 0.0
17/03:30pm 28.6 25.7 8.3 28 11.1 NNE 13 20 7 11 - - 0.0
17/03:00pm 28.2 25.8 8.5 29 10.8 NNE 11 20 6 11 - - 0.0
17/02:30pm 28.6 26.1 9.8 31 10.6 NE 13 20 7 11 - - 0.0
17/02:00pm 27.8 25.5 10.5 34 9.8 NNE 13 19 7 10 - - 0.0
17/01:30pm 28.3 26.0 9.1 30 10.6 NNW 11 24 6 13 - - 0.0
17/01:00pm 27.2 24.9 10.4 35 9.5 N 13 19 7 10 - - 0.0
17/12:30pm 26.7 24.5 9.5 34 9.5 NNE 11 22 6 12 - - 0.0
17/12:00pm 26.1 23.9 10.7 38 8.7 NNE 13 28 7 15 - - 0.0
17/11:30am 25.2 22.1 10.3 39 8.3 NNE 17 28 9 15 - - 0.0
17/11:00am 24.7 21.7 10.6 41 7.9 NNE 17 30 9 16 - - 0.0
17/10:30am 24.0 20.5 10.3 42 7.6 NNE 19 30 10 16 - - 0.0
17/10:00am 23.3 20.8 11.0 46 6.9 NNE 15 28 8 15 - - 0.0
17/09:30am 22.4 20.4 11.5 50 6.1 NNE 13 26 7 14 - - 0.0
17/09:00am 20.6 18.5 11.0 54 5.3 NNE 13 20 7 11 - - 0.0
17/08:30am 19.4 17.8 11.4 60 4.4 N 11 17 6 9 - - 0.0
17/08:00am 17.9 16.2 11.2 65 3.6 NNE 11 22 6 12 - - 0.0
17/07:30am 16.6 14.9 11.3 71 2.9 NNE 11 17 6 9 - - 0.0
17/07:00am 16.0 14.7 11.2 73 2.6 NNE 9 17 5 9 - - 0.0
17/06:30am 16.1 15.2 11.5 74 2.5 NNE 7 17 4 9 - - 0.0
17/06:00am 14.6 14.2 11.0 79 1.9 NNW 4 9 2 5 - - 0.0
17/05:30am 11.3 11.4 10.0 92 0.7 CALM 0 0 0 0 - - 0.0
17/05:00am 11.9 12.0 10.1 89 0.9 CALM 0 0 0 0 - - 0.0
17/04:30am 13.7 14.2 11.6 87 1.1 CALM 0 2 0 1 - - 0.0
17/04:00am 14.7 15.3 12.0 84 1.5 CALM 0 2 0 1 - - 0.0
17/03:30am 14.7 14.6 12.0 84 1.5 NNE 4 6 2 3 - - 0.0
17/03:00am 14.7 15.5 12.4 86 1.3 CALM 0 6 0 3 - - 0.0
17/02:30am 14.7 15.5 12.7 88 1.1 CALM 0 2 0 1 - - 0.0
17/02:00am 13.5 14.3 12.4 93 0.6 CALM 0 0 0 0 - - 0.0
17/01:30am 13.7 14.5 12.4 92 0.7 CALM 0 0 0 0 - - 0.0
17/01:00am 13.8 14.4 12.0 89 1.0 CALM 0 0 0 0 - - 0.0
17/12:30am 14.2 15.1 12.8 91 0.8 CALM 0 0 0 0 - - 0.0
17/12:00am 14.5 15.4 12.9 90 0.9 CALM 0 0 0 0 - - 0.0
 
Date/Time
EDT
Temp
°C
App
Temp
°C
Dew
Point
°C
Rel
Hum
%
Delta-T
°C
Wind Press
QNH
hPa
Press
MSL
hPa
Rain since
9am
mm
Dir  Spd
km/h
Gust
km/h
Spd
kts
Gust
kts
16/11:30pm 15.1 16.1 13.1 88 1.1 CALM 0 0 0 0 - - 0.0
16/11:00pm 16.3 17.4 13.6 84 1.5 CALM 0 0 0 0 - - 0.0
16/10:30pm 16.9 17.9 13.2 79 2.1 CALM 0 0 0 0 - - 0.0
16/10:00pm 18.6 19.9 14.1 75 2.6 CALM 0 6 0 3 - - 0.0
16/09:30pm 19.7 19.6 13.4 67 3.6 SSE 6 13 3 7 - - 0.0
16/09:00pm 19.8 19.4 13.0 65 3.9 S 7 13 4 7 - - 0.0
16/08:30pm 20.8 20.6 13.0 61 4.5 S 6 11 3 6 - - 0.0
16/08:00pm 21.8 21.5 13.2 58 5.0 SSE 7 13 4 7 - - 0.0
16/07:30pm 22.4 21.5 12.6 54 5.6 S 9 17 5 9 - - 0.0
16/07:00pm 24.2 24.4 13.1 50 6.4 ESE 4 11 2 6 - - 0.0
16/06:30pm 25.7 24.6 10.7 39 8.4 NNE 7 15 4 8 - - 0.0
16/06:00pm 26.1 25.4 11.5 40 8.3 NNE 6 13 3 7 - - 0.0
16/05:30pm 26.8 25.8 10.9 37 9.0 NNE 7 15 4 8 - - 0.0
16/05:00pm 26.0 24.4 10.2 37 8.8 NNE 9 17 5 9 - - 0.0
16/04:30pm 27.5 26.4 10.7 35 9.5 NE 7 17 4 9 - - 0.0
16/04:00pm 25.8 24.6 10.4 38 8.6 N 7 13 4 7 - - 0.0
16/03:30pm 27.5 27.0 11.9 38 9.0 N 6 15 3 8 - - 0.0
16/03:00pm 26.2 25.3 11.2 39 8.5 N 7 20 4 11 - - 0.0
16/02:30pm 27.0 25.3 12.3 40 8.5 NNW 13 24 7 13 - - 0.0
16/02:00pm 26.5 25.1 11.0 38 8.8 NNW 9 19 5 10 - - 0.0
16/01:30pm 25.9 24.3 11.6 40 8.2 N 11 24 6 13 - - 0.0
16/01:00pm 25.4 24.7 13.3 47 7.1 N 9 19 5 10 - - 0.0
16/12:30pm 24.6 23.6 13.5 50 6.5 NNE 11 20 6 11 - - 0.0
16/12:00pm 23.7 23.4 13.3 52 6.0 N 7 13 4 7 - - 0.0
16/11:30am 22.6 21.7 12.5 53 5.8 N 9 19 5 10 - - 0.0
16/11:00am 21.9 21.9 13.5 59 4.9 NNE 6 15 3 8 - - 0.0
16/10:30am 19.0 18.6 13.0 68 3.4 N 7 13 4 7 - - 0.0
16/10:00am 16.1 15.5 11.7 75 2.4 NNE 6 11 3 6 - - 0.0
16/09:30am 14.6 14.4 11.7 83 1.6 NNE 4 7 2 4 - - 0.0
16/09:00am 12.2 11.4 10.9 92 0.7 NNE 6 9 3 5 - - 0.0
16/08:30am 11.7 11.2 10.8 94 0.5 NNE 4 9 2 5 - - 0.0
16/08:00am 11.4 11.3 10.8 96 0.3 NNE 2 7 1 4 - - 0.0
16/07:30am 11.0 9.8 10.4 96 0.3 N 7 11 4 6 - - 0.0
16/07:00am 11.0 10.4 10.4 96 0.3 N 4 9 2 5 - - 0.0
16/06:30am 10.9 9.9 10.3 96 0.3 N 6 9 3 5 - - 0.0
16/06:00am 10.9 9.9 10.4 97 0.3 N 6 9 3 5 - - 0.0
16/05:30am 10.8 10.2 10.3 97 0.3 N 4 7 2 4 - - 0.0
16/05:00am 10.8 10.2 10.3 97 0.3 N 4 6 2 3 - - 0.0
16/04:30am 10.7 10.0 10.1 96 0.3 NE 4 9 2 5 - - 0.0
16/04:00am 11.0 10.4 10.4 96 0.3 NNW 4 6 2 3 - - 0.0
16/03:30am 11.0 10.3 10.2 95 0.4 NNE 4 6 2 3 - - 0.0
16/03:00am 11.2 11.4 10.4 95 0.4 CALM 0 6 0 3 - - 0.0
16/02:30am 11.1 11.2 10.2 94 0.5 CALM 0 0 0 0 - - 0.0
16/02:00am 11.1 10.8 10.2 94 0.5 S 2 4 1 2 - - 0.0
16/01:30am 11.2 10.6 10.3 94 0.5 SSW 4 6 2 3 - - 0.0
16/01:00am 11.2 10.6 10.3 94 0.5 SSE 4 9 2 5 - - 0.0
16/12:30am 11.1 9.9 10.2 94 0.5 S 7 17 4 9 - - 0.0
16/12:00am 11.2 9.9 10.1 93 0.6 S 7 13 4 7 - - 0.0
 
Date/Time
EDT
Temp
°C
App
Temp
°C
Dew
Point
°C
Rel
Hum
%
Delta-T
°C
Wind Press
QNH
hPa
Press
MSL
hPa
Rain since
9am
mm
Dir  Spd
km/h
Gust
km/h
Spd
kts
Gust
kts
15/11:30pm 11.3 10.6 9.9 91 0.7 SSW 4 7 2 4 - - 0.0
15/11:00pm 11.6 11.2 9.9 89 0.9 SSE 2 7 1 4 - - 0.0
15/10:30pm 12.2 10.6 10.3 88 1.0 SSE 9 17 5 9 - - 0.0
15/10:00pm 12.3 9.9 10.2 87 1.1 S 13 19 7 10 - - 0.0
15/09:30pm 12.6 11.0 10.1 85 1.3 S 9 19 5 10 - - 0.0
15/09:00pm 13.0 11.0 10.0 82 1.5 S 11 20 6 11 - - 0.0
15/08:30pm 13.8 11.4 10.0 78 2.0 S 13 20 7 11 - - 0.0
15/08:00pm 14.6 12.7 10.6 77 2.1 S 11 20 6 11 - - 0.0
15/07:30pm 15.6 14.6 11.0 74 2.5 S 7 17 4 9 - - 0.0
15/07:00pm 16.9 15.3 11.4 70 3.0 SSE 11 20 6 11 - - 0.0
15/06:30pm 17.7 16.1 11.5 67 3.4 SSE 11 22 6 12 - - 0.0
15/06:00pm 18.1 15.5 10.7 62 4.0 S 15 24 8 13 - - 0.0
15/05:30pm 19.2 16.9 10.5 57 4.7 SSE 13 22 7 12 - - 0.0
15/05:00pm 20.2 17.9 10.3 53 5.4 SSE 13 22 7 12 - - 0.0
15/04:30pm 20.5 18.2 10.3 52 5.5 S 13 20 7 11 - - 0.0
15/04:00pm 20.9 18.8 11.0 53 5.5 S 13 24 7 13 - - 0.0
15/03:30pm 21.4 20.3 12.0 55 5.3 S 9 19 5 10 - - 0.0
15/03:00pm 21.2 20.1 11.8 55 5.3 SW 9 17 5 9 - - 0.0
15/02:30pm 20.9 20.2 12.1 57 4.9 S 7 19 4 10 - - 0.0
15/02:00pm 20.3 18.8 11.8 58 4.7 SW 11 19 6 10 - - 0.0
15/01:30pm 19.4 18.2 10.4 56 4.9 SW 7 13 4 7 - - 0.0
15/01:00pm 18.8 17.1 9.8 56 4.8 SW 9 15 5 8 - - 0.0
15/12:30pm 18.2 17.1 10.1 59 4.3 SW 6 11 3 6 - - 0.0
15/12:00pm 17.8 16.8 10.4 62 4.0 S 6 11 3 6 - - 0.0
15/11:30am 16.8 15.8 8.8 59 4.1 SSE 4 9 2 5 - - 0.0
15/11:00am 16.2 15.4 9.8 66 3.4 S 4 13 2 7 - - 0.0
15/10:30am 15.3 14.7 9.0 66 3.2 SSE 2 7 1 4 - - 0.0
15/10:00am 13.6 12.7 7.8 68 2.9 NNW 2 6 1 3 - - 0.0
15/09:30am 12.7 12.1 7.2 69 2.7 CALM 0 0 0 0 - - 0.0
15/09:00am 12.0 11.3 6.9 71 2.4 CALM 0 4 0 2 - - 0.0
15/08:30am 9.7 8.6 6.8 82 1.4 NNE 2 6 1 3 - - 0.0
15/08:00am 7.6 6.1 6.7 94 0.4 NNE 4 6 2 3 - - 0.0
15/07:30am 5.7 4.6 5.1 96 0.3 CALM 0 0 0 0 - - 0.0
15/07:00am 3.9 2.4 3.2 95 0.3 CALM 0 0 0 0 - - 0.0
15/06:30am 3.8 2.3 3.1 95 0.3 CALM 0 0 0 0 - - 0.0
15/06:00am 4.0 2.6 3.3 95 0.3 CALM 0 0 0 0 - - 0.0
15/05:30am 4.4 3.0 3.7 95 0.3 CALM 0 0 0 0 - - 0.0
15/05:00am 4.2 2.8 3.3 94 0.4 CALM 0 0 0 0 - - 0.0
15/04:30am 4.5 3.1 3.6 94 0.4 CALM 0 0 0 0 - - 0.0
15/04:00am 4.6 3.2 3.7 94 0.4 CALM 0 0 0 0 - - 0.0
15/03:30am 5.1 3.8 4.2 94 0.4 CALM 0 0 0 0 - - 0.0
15/03:00am 5.2 3.9 4.2 93 0.4 CALM 0 0 0 0 - - 0.0
15/02:30am 5.7 4.5 4.5 92 0.5 CALM 0 0 0 0 - - 0.0
15/02:00am 5.9 4.7 4.5 91 0.6 CALM 0 0 0 0 - - 0.0
15/01:30am 6.5 5.4 5.0 90 0.7 CALM 0 2 0 1 - - 0.0
15/01:00am 6.6 5.4 4.6 87 0.9 CALM 0 0 0 0 - - 0.0
15/12:30am 7.7 6.7 5.5 86 1.0 CALM 0 0 0 0 - - 0.0
15/12:00am 8.8 6.7 5.7 81 1.4 S 6 9 3 5 - - 0.0
 
Date/Time
EDT
Temp
°C
App
Temp
°C
Dew
Point
°C
Rel
Hum
%
Delta-T
°C
Wind Press
QNH
hPa
Press
MSL
hPa
Rain since
9am
mm
Dir  Spd
km/h
Gust
km/h
Spd
kts
Gust
kts
14/11:30pm 8.8 6.7 5.9 82 1.3 SSW 6 9 3 5 - - 0.0
14/11:00pm 8.9 6.8 5.6 80 1.5 SSW 6 9 3 5 - - 0.0
14/10:30pm 9.2 7.1 5.8 79 1.6 S 6 7 3 4 - - 0.0
14/10:00pm 9.8 7.7 5.6 75 1.9 S 6 7 3 4 - - 0.0
14/09:30pm 10.3 8.2 5.7 73 2.1 SSE 6 7 3 4 - - 0.0
14/09:00pm 10.9 8.8 5.7 70 2.4 SSE 6 9 3 5 - - 0.0
14/08:30pm 11.4 9.1 5.5 67 2.7 SSE 7 13 4 7 - - 0.0
14/08:00pm 12.3 10.1 5.5 63 3.2 SSE 6 11 3 6 - - 0.0
14/07:30pm 13.3 11.0 5.7 60 3.6 SSE 7 15 4 8 - - 0.0
14/07:00pm 14.3 11.7 6.2 58 3.9 SSE 9 17 5 9 - - 0.0

Other Formats:

Comma delimited format used in spreadsheet applications
http://www.bom.gov.au/fwo/IDV60801/IDV60801.95867.axf

JavaScript Object Notation format (JSON) in row-major order
http://www.bom.gov.au/fwo/IDV60801/IDV60801.95867.json